createdAt,value
2022-11-02T00:00:58.075Z,0.00
2022-11-02T00:01:51.115Z,0.00
2022-11-02T00:02:58.971Z,0.00
2022-11-02T00:05:51.900Z,0.00
2022-11-02T00:06:49.242Z,0.00
2022-11-02T00:07:56.824Z,0.00
2022-11-02T00:09:00.335Z,0.00
2022-11-02T00:09:51.524Z,0.00
2022-11-02T00:10:51.648Z,0.00
2022-11-02T00:12:11.667Z,0.00
2022-11-02T00:12:57.160Z,0.00
2022-11-02T00:14:29.450Z,0.00
2022-11-02T00:14:55.039Z,0.00
2022-11-02T00:16:03.300Z,0.00
2022-11-02T00:16:56.335Z,0.00
2022-11-02T00:18:15.673Z,0.00
2022-11-02T00:26:19.968Z,0.00
2022-11-02T00:27:12.316Z,0.00
2022-11-02T00:28:18.776Z,0.00
2022-11-02T00:29:10.906Z,0.00
2022-11-02T00:30:20.121Z,0.00
2022-11-02T00:31:10.675Z,0.00
2022-11-02T00:32:10.724Z,0.00
2022-11-02T00:33:10.318Z,0.00
2022-11-02T00:34:12.422Z,0.00
2022-11-02T00:35:12.363Z,0.00
2022-11-02T00:36:11.541Z,0.00
2022-11-02T00:37:12.242Z,0.00
2022-11-02T00:38:18.247Z,0.00
2022-11-02T00:39:19.225Z,0.00
2022-11-02T00:40:11.334Z,0.00
2022-11-02T00:41:12.081Z,0.00
2022-11-02T00:42:41.941Z,0.00
2022-11-02T00:43:08.252Z,0.00
2022-11-02T00:44:08.262Z,0.00
2022-11-02T00:45:26.832Z,0.00
2022-11-02T00:46:24.231Z,0.00
2022-11-02T00:47:19.991Z,0.00
2022-11-02T00:48:15.121Z,0.00
2022-11-02T00:55:42.037Z,0.00
2022-11-02T00:56:04.133Z,0.00
2022-11-02T00:57:09.680Z,0.00
2022-11-02T00:58:13.479Z,0.00
2022-11-02T00:59:22.574Z,0.00
2022-11-02T01:00:24.292Z,0.00
2022-11-02T01:01:13.098Z,0.00
2022-11-02T01:02:11.398Z,0.00
2022-11-02T01:07:54.781Z,0.00
2022-11-02T01:08:05.373Z,0.00
2022-11-02T01:09:02.272Z,0.00
2022-11-02T01:10:01.885Z,0.00
2022-11-02T01:11:07.271Z,0.00
2022-11-02T01:12:02.389Z,0.00
2022-11-02T01:13:10.123Z,0.00
2022-11-02T01:14:10.759Z,0.00
2022-11-02T01:15:03.277Z,0.00
2022-11-02T01:16:11.057Z,0.00
2022-11-02T01:17:12.372Z,0.00
2022-11-02T01:18:09.664Z,0.00
2022-11-02T01:19:02.125Z,0.00
2022-11-02T01:20:10.585Z,0.00
2022-11-02T01:21:04.354Z,0.00
2022-11-02T01:22:08.609Z,0.00
2022-11-02T01:24:48.265Z,0.00
2022-11-02T01:25:33.632Z,0.00
2022-11-02T01:26:36.590Z,0.00
2022-11-02T01:27:30.922Z,0.00
2022-11-02T01:28:31.303Z,0.00
2022-11-02T01:29:38.299Z,0.00
2022-11-02T01:30:28.580Z,0.00
2022-11-02T01:31:31.544Z,0.00
2022-11-02T01:32:37.480Z,0.00
2022-11-02T01:34:17.035Z,0.00
2022-11-02T01:34:41.792Z,0.00
2022-11-02T01:35:37.021Z,0.00
2022-11-02T01:36:38.038Z,0.00
2022-11-02T01:37:26.711Z,0.00
2022-11-02T01:38:28.863Z,0.00
2022-11-02T01:39:34.878Z,0.00
2022-11-02T01:40:51.649Z,0.00
2022-11-02T01:43:06.239Z,0.00
2022-11-02T01:51:52.311Z,0.00
2022-11-02T01:52:50.262Z,0.00
2022-11-02T01:53:42.675Z,0.00
2022-11-02T01:54:41.374Z,0.00
2022-11-02T01:56:02.242Z,0.00
2022-11-02T01:56:48.346Z,0.00
2022-11-02T01:57:47.391Z,0.00
2022-11-02T01:58:56.068Z,0.00
2022-11-02T01:59:52.504Z,0.00
2022-11-02T02:00:46.208Z,0.00
2022-11-02T02:01:43.904Z,0.00
2022-11-02T02:02:59.637Z,0.00
2022-11-02T02:03:50.041Z,0.00
2022-11-02T02:04:55.605Z,0.00
2022-11-02T02:05:54.601Z,0.00
2022-11-02T02:06:55.999Z,0.00
2022-11-02T02:07:56.402Z,0.00
2022-11-02T02:08:47.015Z,0.00
2022-11-02T02:10:06.957Z,0.00
2022-11-02T02:10:54.996Z,0.00
2022-11-02T02:11:47.489Z,0.00
2022-11-02T02:12:45.391Z,0.00
2022-11-02T02:13:55.086Z,0.00
2022-11-02T02:15:03.119Z,0.00
2022-11-02T02:15:42.967Z,0.00
2022-11-02T02:16:45.535Z,0.00
2022-11-02T02:17:56.883Z,0.00
2022-11-02T02:18:50.434Z,0.00
2022-11-02T02:19:55.086Z,0.00
2022-11-02T02:20:46.898Z,0.00
2022-11-02T02:22:14.100Z,0.00
2022-11-02T02:22:52.874Z,0.00
2022-11-02T02:23:48.143Z,0.00
2022-11-02T02:24:54.892Z,0.00
2022-11-02T02:25:50.230Z,0.00
2022-11-02T02:26:52.563Z,0.00
2022-11-02T02:27:47.775Z,0.00
2022-11-02T02:28:43.273Z,0.00
2022-11-02T02:29:47.678Z,0.00
2022-11-02T02:31:12.924Z,0.00
2022-11-02T02:31:48.658Z,0.00
2022-11-02T02:32:55.035Z,0.00
2022-11-02T02:33:47.838Z,0.00
2022-11-02T02:34:55.080Z,0.00
2022-11-02T02:35:57.010Z,0.00
2022-11-02T02:36:49.683Z,0.00
2022-11-02T02:37:46.120Z,0.00
2022-11-02T02:38:51.776Z,0.00
2022-11-02T02:39:54.090Z,0.00
2022-11-02T02:40:52.876Z,0.00
2022-11-02T02:41:46.014Z,0.00
2022-11-02T02:42:42.375Z,0.00
2022-11-02T02:43:44.271Z,0.00
2022-11-02T02:44:47.707Z,0.00
2022-11-02T02:45:49.535Z,0.00
2022-11-02T02:51:41.424Z,0.00
2022-11-02T02:51:54.635Z,0.00
2022-11-02T02:52:57.569Z,0.00
2022-11-02T02:54:04.213Z,0.00
2022-11-02T02:55:02.465Z,0.00
2022-11-02T02:55:58.440Z,0.00
2022-11-02T02:56:57.727Z,0.00
2022-11-02T02:58:02.592Z,0.00
2022-11-02T02:59:00.166Z,0.00
2022-11-02T03:00:04.075Z,0.00
2022-11-02T03:00:59.213Z,0.00
2022-11-02T03:02:03.474Z,0.00
2022-11-02T03:03:07.282Z,0.00
2022-11-02T03:03:59.119Z,0.00
2022-11-02T03:04:58.403Z,0.00
2022-11-02T03:05:57.402Z,0.00
2022-11-02T03:07:01.421Z,0.00
2022-11-02T03:08:06.997Z,0.00
2022-11-02T03:08:59.219Z,0.00
2022-11-02T03:09:58.984Z,0.00
2022-11-02T03:10:53.884Z,0.00
2022-11-02T03:12:01.820Z,0.00
2022-11-02T03:12:55.983Z,0.00
2022-11-02T03:13:54.113Z,0.00
2022-11-02T03:14:57.934Z,0.00
2022-11-02T03:16:03.816Z,0.00
2022-11-02T03:16:56.531Z,0.00
2022-11-02T03:17:57.239Z,0.00
2022-11-02T03:19:02.073Z,0.00
2022-11-02T03:19:55.725Z,0.00
2022-11-02T03:21:02.655Z,0.00
2022-11-02T03:22:29.563Z,0.00
2022-11-02T03:22:55.601Z,0.00
2022-11-02T03:24:00.492Z,0.00
2022-11-02T03:24:57.672Z,0.00
2022-11-02T03:25:59.844Z,0.00
2022-11-02T03:27:01.969Z,0.00
2022-11-02T03:31:39.524Z,0.00
2022-11-02T03:32:36.220Z,0.00
2022-11-02T03:33:31.993Z,0.00
2022-11-02T03:34:31.521Z,0.00
2022-11-02T03:35:30.383Z,0.00
2022-11-02T03:36:32.109Z,0.00
2022-11-02T03:37:42.395Z,0.00
2022-11-02T03:38:28.071Z,0.00
2022-11-02T03:41:12.461Z,0.00
2022-11-02T03:42:12.786Z,0.00
2022-11-02T03:43:12.173Z,0.00
2022-11-02T03:44:12.511Z,0.00
2022-11-02T03:45:07.215Z,0.00
2022-11-02T03:46:11.743Z,0.00
2022-11-02T03:47:16.006Z,0.00
2022-11-02T03:48:05.825Z,0.00
2022-11-02T03:49:08.695Z,0.00
2022-11-02T03:50:05.815Z,0.00
2022-11-02T03:51:08.708Z,0.00
2022-11-02T03:52:04.770Z,0.00
2022-11-02T03:53:06.593Z,0.00
2022-11-02T03:54:11.741Z,0.00
2022-11-02T03:55:11.398Z,0.00
2022-11-02T03:56:12.640Z,0.00
2022-11-02T03:57:11.895Z,0.00
2022-11-02T03:58:15.096Z,0.00
2022-11-02T03:59:37.416Z,0.00
2022-11-02T04:00:31.667Z,0.00
2022-11-02T04:01:17.814Z,0.00
2022-11-02T04:02:10.334Z,0.00
2022-11-02T04:03:13.799Z,0.00
2022-11-02T04:04:09.689Z,0.00
2022-11-02T04:05:17.271Z,0.00
2022-11-02T04:06:19.143Z,0.00
2022-11-02T04:07:13.329Z,0.00
2022-11-02T04:10:20.825Z,0.00
2022-11-02T04:10:49.245Z,0.00
2022-11-02T04:11:40.607Z,0.00
2022-11-02T04:12:50.561Z,0.00
2022-11-02T04:13:43.665Z,0.00
2022-11-02T04:14:43.611Z,0.00
2022-11-02T04:15:39.189Z,0.00
2022-11-02T04:16:38.058Z,0.00
2022-11-02T04:17:39.464Z,0.00
2022-11-02T04:18:37.791Z,0.00
2022-11-02T04:19:44.220Z,0.00
2022-11-02T04:32:04.195Z,0.00
2022-11-02T04:32:23.434Z,0.00
2022-11-02T04:33:41.640Z,0.00
2022-11-02T04:34:16.728Z,0.00
2022-11-02T04:35:24.735Z,0.00
2022-11-02T04:36:32.788Z,0.00
2022-11-02T04:37:14.049Z,0.00
2022-11-02T04:38:09.042Z,0.00
2022-11-02T04:39:09.043Z,0.00
2022-11-02T04:40:09.138Z,0.00
2022-11-02T04:41:09.044Z,0.00
2022-11-02T04:42:09.032Z,0.00
2022-11-02T04:43:10.097Z,0.00
2022-11-02T04:44:12.340Z,0.00
2022-11-02T04:45:19.130Z,0.00
2022-11-02T04:46:25.739Z,0.00
2022-11-02T04:47:20.375Z,0.00
2022-11-02T04:48:18.357Z,0.00
2022-11-02T04:49:39.336Z,0.00
2022-11-02T04:50:27.982Z,0.00
2022-11-02T04:51:25.034Z,0.00
2022-11-02T04:52:21.212Z,0.00
2022-11-02T04:53:17.969Z,0.00
2022-11-02T04:54:20.567Z,0.00
2022-11-02T04:55:17.131Z,0.00
2022-11-02T04:56:18.141Z,0.00
2022-11-02T05:02:57.032Z,0.00
2022-11-02T05:03:59.101Z,0.00
2022-11-02T05:04:48.963Z,0.00
2022-11-02T05:05:50.561Z,0.00
2022-11-02T05:07:02.825Z,0.00
2022-11-02T05:08:00.817Z,0.00
2022-11-02T05:09:18.974Z,0.00
2022-11-02T05:09:56.298Z,0.00
2022-11-02T05:10:48.390Z,0.00
2022-11-02T05:11:43.507Z,0.00
2022-11-02T05:12:53.558Z,0.00
2022-11-02T05:13:56.004Z,0.00
2022-11-02T05:14:55.573Z,0.00
2022-11-02T05:15:51.531Z,0.00
2022-11-02T05:17:02.310Z,0.00
2022-11-02T05:17:57.310Z,0.00
2022-11-02T05:19:10.956Z,0.00
2022-11-02T05:19:57.956Z,0.00
2022-11-02T05:20:52.540Z,0.00
2022-11-02T05:21:50.323Z,0.00
2022-11-02T05:22:55.626Z,0.00
2022-11-02T05:23:48.067Z,0.00
2022-11-02T05:24:58.200Z,0.00
2022-11-02T05:25:51.882Z,0.00
2022-11-02T05:27:26.177Z,0.00
2022-11-02T05:30:01.740Z,0.00
2022-11-02T05:31:15.067Z,0.00
2022-11-02T05:32:30.038Z,0.00
2022-11-02T05:33:17.617Z,0.00
2022-11-02T05:34:00.088Z,0.00
2022-11-02T05:35:09.859Z,0.00
2022-11-02T05:36:02.558Z,0.00
2022-11-02T05:37:07.179Z,0.00
2022-11-02T05:38:06.825Z,0.00
2022-11-02T05:41:15.431Z,0.00
2022-11-02T05:42:11.214Z,0.00
2022-11-02T05:44:24.193Z,4.00
2022-11-02T05:45:37.625Z,4.00
2022-11-02T05:47:57.951Z,0.00
2022-11-02T05:48:47.925Z,4.00
2022-11-02T05:49:16.795Z,4.00
2022-11-02T05:50:51.044Z,4.00
2022-11-02T05:51:31.679Z,8.00
2022-11-02T05:52:22.508Z,4.00
2022-11-02T05:53:26.940Z,12.00
2022-11-02T05:54:26.388Z,12.00
2022-11-02T05:55:32.825Z,12.00
2022-11-02T05:56:24.586Z,16.00
2022-11-02T05:57:18.403Z,20.00
2022-11-02T05:58:16.883Z,20.00
2022-11-02T05:59:49.438Z,24.00
2022-11-02T06:00:48.138Z,28.00
2022-11-02T06:01:37.880Z,32.00
2022-11-02T06:13:18.482Z,164.00
2022-11-02T06:17:33.385Z,260.00
2022-11-02T06:18:10.767Z,288.00
2022-11-02T06:19:10.689Z,312.00
2022-11-02T06:20:10.668Z,324.00
2022-11-02T06:21:10.569Z,348.00
2022-11-02T06:22:21.870Z,372.00
2022-11-02T06:23:43.680Z,396.00
2022-11-02T06:24:27.048Z,416.00
2022-11-02T06:25:22.324Z,436.00
2022-11-02T06:26:35.446Z,480.00
2022-11-02T06:27:31.911Z,504.00
2022-11-02T06:28:23.308Z,496.00
2022-11-02T06:29:17.506Z,472.00
2022-11-02T06:30:16.036Z,500.00
2022-11-02T06:31:18.887Z,568.00
2022-11-02T06:33:32.680Z,820.00
2022-11-02T06:34:32.700Z,948.00
2022-11-02T06:35:32.180Z,932.00
2022-11-02T06:36:32.071Z,796.00
2022-11-02T06:37:32.293Z,664.00
2022-11-02T06:38:56.652Z,648.00
2022-11-02T07:14:47.820Z,3424.00
2022-11-02T07:15:30.299Z,3036.00
2022-11-02T07:16:27.771Z,2912.00
2022-11-02T07:17:31.974Z,3440.00
2022-11-02T07:18:28.289Z,3608.00
2022-11-02T07:19:27.366Z,3736.00
2022-11-02T07:20:27.459Z,3720.00
2022-11-02T07:21:27.402Z,2976.00
2022-11-02T07:22:27.301Z,2752.00
2022-11-02T07:23:27.484Z,3184.00
2022-11-02T07:24:27.196Z,3428.00
2022-11-02T07:25:27.310Z,3560.00
2022-11-02T07:26:27.330Z,4180.00
2022-11-02T07:27:27.653Z,5048.00
2022-11-02T07:28:27.157Z,5964.00
2022-11-02T07:29:27.228Z,6016.00
2022-11-02T07:30:27.250Z,5764.00
2022-11-02T07:31:27.362Z,5276.00
2022-11-02T07:32:46.138Z,5204.00
2022-11-02T08:51:48.928Z,10408.00
2022-11-02T08:52:12.363Z,7908.00
2022-11-02T08:53:12.459Z,9116.00
2022-11-02T08:54:12.304Z,10008.00
2022-11-02T08:55:12.375Z,9268.00
2022-11-02T08:56:12.383Z,10244.00
2022-11-02T08:57:18.256Z,9724.00
2022-11-02T08:58:26.171Z,11280.00
2022-11-02T08:59:21.658Z,13272.00
2022-11-02T09:00:34.256Z,11428.00
2022-11-02T09:01:16.668Z,10480.00
2022-11-02T09:02:22.490Z,7504.00
2022-11-02T09:03:20.682Z,7776.00
2022-11-02T09:04:35.119Z,9592.00
2022-11-02T09:05:19.299Z,12116.00
2022-11-02T09:06:27.358Z,13504.00
2022-11-02T09:07:15.230Z,13716.00
2022-11-02T09:08:14.507Z,11948.00
2022-11-02T09:09:19.584Z,11824.00
2022-11-02T09:10:19.081Z,14192.00
2022-11-02T09:11:16.753Z,15012.00
2022-11-02T09:12:18.607Z,15660.00
2022-11-02T09:13:12.805Z,15608.00
2022-11-02T09:14:15.377Z,14168.00
2022-11-02T09:15:17.308Z,12912.00
2022-11-02T09:16:14.519Z,12152.00
2022-11-02T09:17:19.050Z,11728.00
2022-11-02T09:18:17.520Z,10960.00
2022-11-02T09:19:18.754Z,9612.00
2022-11-02T09:20:17.301Z,7976.00
2022-11-02T09:21:20.638Z,6420.00
2022-11-02T09:22:13.006Z,5408.00
2022-11-02T09:23:19.181Z,4776.00
2022-11-02T09:24:21.429Z,4556.00
2022-11-02T09:25:22.644Z,4304.00
2022-11-02T09:26:17.486Z,4804.00
2022-11-02T09:27:19.258Z,6368.00
2022-11-02T09:28:21.157Z,8080.00
2022-11-02T09:29:17.298Z,8876.00
2022-11-02T09:30:19.931Z,9196.00
2022-11-02T09:31:45.230Z,11420.00
2022-11-02T09:32:12.779Z,13108.00
2022-11-02T09:33:12.155Z,13196.00
2022-11-02T09:34:13.070Z,11424.00
2022-11-02T09:42:57.206Z,14364.00
2022-11-02T09:43:32.177Z,14116.00
2022-11-02T09:44:27.056Z,14516.00
2022-11-02T09:45:25.908Z,14236.00
2022-11-02T09:46:24.743Z,12132.00
2022-11-02T09:48:10.799Z,11700.00
2022-11-02T09:48:28.813Z,11268.00
2022-11-02T09:49:26.651Z,9476.00
2022-11-02T10:10:23.158Z,9492.00
2022-11-02T10:11:22.546Z,10424.00
2022-11-02T10:12:22.740Z,11876.00
2022-11-02T10:13:25.067Z,11692.00
2022-11-02T10:14:25.902Z,12016.00
2022-11-02T10:15:24.977Z,10880.00
2022-11-02T10:16:27.122Z,10484.00
2022-11-02T10:17:28.097Z,9128.00
2022-11-02T10:18:25.594Z,8264.00
2022-11-02T10:19:26.365Z,8548.00
2022-11-02T10:20:25.758Z,7688.00
2022-11-02T10:21:26.949Z,6488.00
2022-11-02T10:22:25.965Z,5568.00
2022-11-02T10:23:26.590Z,5924.00
2022-11-02T12:01:28.059Z,11124.00
2022-11-02T12:02:24.212Z,11716.00
2022-11-02T12:03:23.979Z,10236.00
2022-11-02T12:04:24.778Z,9244.00
2022-11-02T12:05:24.078Z,9408.00
2022-11-02T12:06:23.877Z,9288.00
2022-11-02T12:07:27.472Z,9236.00
2022-11-02T12:08:23.901Z,8668.00
2022-11-02T12:09:24.012Z,8388.00
2022-11-02T12:10:28.108Z,11660.00
2022-11-02T12:11:51.502Z,13976.00
2022-11-02T12:13:10.870Z,13320.00
2022-11-02T12:13:39.357Z,10168.00
2022-11-02T12:14:46.958Z,10928.00
2022-11-02T12:15:37.059Z,9884.00
2022-11-02T12:16:57.522Z,12028.00
2022-11-02T12:17:31.724Z,15644.00
2022-11-02T12:18:28.680Z,19776.00
2022-11-02T12:27:28.954Z,20096.00
2022-11-02T12:27:57.217Z,18528.00
2022-11-02T12:28:58.889Z,26304.00
2022-11-02T12:30:00.283Z,30848.00
2022-11-02T12:30:55.135Z,57568.00
2022-11-02T12:31:59.666Z,39136.00
2022-11-02T12:34:20.121Z,16640.00
2022-11-02T13:21:43.738Z,17760.00
2022-11-02T13:22:37.472Z,13020.00
2022-11-02T13:23:55.560Z,14004.00
2022-11-02T13:24:34.798Z,16512.00
2022-11-02T13:26:01.926Z,9320.00
2022-11-02T13:27:13.813Z,8516.00
2022-11-02T15:00:25.311Z,2360.00
2022-11-02T15:01:34.935Z,2272.00
2022-11-02T15:09:27.348Z,1924.00
2022-11-02T15:10:17.719Z,1880.00
2022-11-02T15:11:09.407Z,1876.00
2022-11-02T15:12:22.918Z,1856.00
2022-11-02T15:13:18.864Z,1800.00
2022-11-02T15:14:22.571Z,1740.00
2022-11-02T15:15:23.188Z,1680.00
2022-11-02T15:16:05.991Z,1600.00
2022-11-02T15:17:19.798Z,1540.00
2022-11-02T15:18:21.017Z,1488.00
2022-11-02T15:19:03.361Z,1432.00
2022-11-02T15:20:22.666Z,1392.00
2022-11-02T15:21:31.308Z,1356.00
2022-11-02T15:21:59.918Z,1320.00
2022-11-02T15:23:09.747Z,1280.00
2022-11-02T15:24:18.806Z,1240.00
2022-11-02T15:24:58.326Z,1196.00
2022-11-02T15:26:19.670Z,1156.00
2022-11-02T15:27:30.156Z,1112.00
2022-11-02T15:28:07.358Z,1064.00
2022-11-02T15:29:21.026Z,1020.00
2022-11-02T15:30:04.826Z,976.00
2022-11-02T15:31:27.125Z,928.00
2022-11-02T15:32:07.620Z,860.00
2022-11-02T15:33:32.961Z,796.00
2022-11-02T15:33:54.233Z,748.00
2022-11-02T15:34:53.607Z,708.00
2022-11-02T15:35:53.408Z,668.00
2022-11-02T15:36:53.410Z,628.00
2022-11-02T15:38:15.771Z,588.00
2022-11-02T15:38:54.149Z,552.00
2022-11-02T15:39:53.353Z,516.00
2022-11-02T15:40:53.265Z,484.00
2022-11-02T15:41:53.346Z,444.00
2022-11-02T15:42:53.758Z,416.00
2022-11-02T15:43:53.058Z,376.00
2022-11-02T15:44:53.070Z,344.00
2022-11-02T15:45:57.822Z,316.00
2022-11-02T15:46:54.111Z,288.00
2022-11-02T15:47:53.170Z,256.00
2022-11-02T15:48:53.017Z,232.00
2022-11-02T15:49:53.095Z,208.00
2022-11-02T15:50:53.299Z,184.00
2022-11-02T15:51:53.131Z,168.00
2022-11-02T15:53:16.930Z,152.00
2022-11-02T15:53:54.162Z,132.00
2022-11-02T15:54:52.849Z,116.00
2022-11-02T15:55:53.880Z,104.00
2022-11-02T15:56:53.177Z,92.00
2022-11-02T15:57:52.841Z,80.00
2022-11-02T15:58:52.772Z,68.00
2022-11-02T15:59:52.974Z,60.00
2022-11-02T16:00:53.020Z,52.00
2022-11-02T16:01:52.988Z,44.00
2022-11-02T16:02:52.883Z,36.00
2022-11-02T16:03:57.232Z,32.00
2022-11-02T16:04:53.815Z,28.00
2022-11-02T16:05:52.902Z,20.00
2022-11-02T16:06:52.931Z,20.00
2022-11-02T16:08:53.943Z,16.00
2022-11-02T16:09:52.647Z,12.00
2022-11-02T16:10:53.474Z,12.00
2022-11-02T16:11:52.760Z,8.00
2022-11-02T16:12:52.776Z,8.00
2022-11-02T16:14:08.602Z,4.00
2022-11-02T16:14:53.699Z,8.00
2022-11-02T16:15:52.775Z,4.00
2022-11-02T16:16:52.674Z,4.00
2022-11-02T16:17:52.672Z,4.00
2022-11-02T16:18:52.593Z,4.00
2022-11-02T16:19:52.720Z,4.00
2022-11-02T16:20:52.529Z,0.00
2022-11-02T16:21:55.976Z,0.00
2022-11-02T16:22:53.871Z,0.00
2022-11-02T16:23:53.532Z,0.00
2022-11-02T16:24:52.555Z,0.00
2022-11-02T16:25:52.541Z,0.00
2022-11-02T16:26:52.963Z,0.00
2022-11-02T16:27:52.434Z,0.00
2022-11-02T16:28:55.635Z,0.00
2022-11-02T16:29:53.634Z,0.00
2022-11-02T16:45:01.800Z,0.00
2022-11-02T16:45:27.207Z,0.00
2022-11-02T16:46:27.183Z,0.00
2022-11-02T16:47:27.001Z,0.00
2022-11-02T16:48:27.095Z,0.00
2022-11-02T16:49:27.086Z,0.00
2022-11-02T16:50:27.014Z,0.00
2022-11-02T16:51:27.110Z,0.00
2022-11-02T16:52:27.141Z,0.00
2022-11-02T16:53:27.261Z,0.00
2022-11-02T16:54:27.138Z,0.00
2022-11-02T16:55:28.291Z,0.00
2022-11-02T16:56:26.966Z,0.00
2022-11-02T16:57:27.884Z,0.00
2022-11-02T16:58:27.893Z,0.00
2022-11-02T16:59:27.797Z,0.00
2022-11-02T17:00:26.877Z,0.00
2022-11-02T17:01:27.192Z,0.00
2022-11-02T17:02:27.033Z,0.00
2022-11-02T17:03:26.815Z,0.00
2022-11-02T17:04:26.832Z,0.00
2022-11-02T17:05:27.922Z,0.00
2022-11-02T17:06:27.131Z,0.00
2022-11-02T17:07:26.832Z,0.00
2022-11-02T17:08:28.374Z,0.00
2022-11-02T17:09:30.840Z,0.00
2022-11-02T17:10:26.961Z,0.00
2022-11-02T17:11:29.091Z,0.00
2022-11-02T17:12:26.851Z,0.00
2022-11-02T17:13:26.997Z,0.00
2022-11-02T17:14:26.869Z,0.00
2022-11-02T17:15:26.812Z,0.00
2022-11-02T17:16:26.808Z,0.00
2022-11-02T17:17:26.600Z,0.00
2022-11-02T17:18:26.607Z,0.00
2022-11-02T17:19:26.821Z,0.00
2022-11-02T17:20:31.134Z,0.00
2022-11-02T17:21:29.723Z,0.00
2022-11-02T17:22:26.681Z,0.00
2022-11-02T17:23:26.653Z,0.00
2022-11-02T17:24:26.658Z,0.00
2022-11-02T17:25:26.728Z,0.00
2022-11-02T17:26:26.483Z,0.00
2022-11-02T17:27:26.433Z,0.00
2022-11-02T17:28:27.311Z,0.00
2022-11-02T17:29:26.457Z,0.00
2022-11-02T17:30:26.358Z,0.00
2022-11-02T17:31:26.397Z,0.00
2022-11-02T17:32:26.400Z,0.00
2022-11-02T17:33:26.324Z,0.00
2022-11-02T17:34:26.383Z,0.00
2022-11-02T17:35:27.589Z,0.00
2022-11-02T17:36:26.343Z,0.00
2022-11-02T17:37:43.787Z,0.00
2022-11-02T17:38:48.476Z,0.00
2022-11-02T17:39:43.396Z,0.00
2022-11-02T17:40:45.685Z,0.00
2022-11-02T17:41:48.924Z,0.00
2022-11-02T17:42:47.137Z,0.00
2022-11-02T17:44:03.725Z,0.00
2022-11-02T17:44:33.623Z,0.00
2022-11-02T18:22:03.140Z,0.00
2022-11-02T18:23:10.339Z,0.00
2022-11-02T18:24:18.829Z,0.00
2022-11-02T18:25:15.045Z,0.00
2022-11-02T21:34:52.189Z,0.00
2022-11-02T21:35:51.533Z,0.00
2022-11-02T21:36:51.458Z,0.00
2022-11-02T21:38:03.836Z,0.00
2022-11-02T21:39:18.929Z,0.00
2022-11-02T21:46:39.733Z,0.00
2022-11-02T21:47:23.016Z,0.00
2022-11-02T21:48:34.044Z,0.00
2022-11-02T21:49:30.635Z,0.00
2022-11-02T21:50:56.613Z,0.00
2022-11-02T21:51:32.934Z,0.00
2022-11-02T21:52:55.692Z,0.00
2022-11-02T21:53:35.030Z,0.00
2022-11-02T21:54:28.461Z,0.00
2022-11-02T21:55:25.135Z,0.00
2022-11-02T21:57:09.669Z,0.00
2022-11-02T21:57:32.072Z,0.00
2022-11-02T21:58:52.176Z,0.00
2022-11-02T21:59:27.203Z,0.00
2022-11-02T22:00:35.457Z,0.00
2022-11-02T22:01:27.333Z,0.00
2022-11-02T22:03:04.079Z,0.00
2022-11-02T22:03:29.907Z,0.00
2022-11-02T22:04:29.330Z,0.00
2022-11-02T22:05:48.920Z,0.00
2022-11-02T22:06:41.272Z,0.00
2022-11-02T22:07:33.191Z,0.00
2022-11-02T22:08:34.894Z,0.00
2022-11-02T22:09:33.163Z,0.00
2022-11-02T22:20:58.315Z,0.00
2022-11-02T22:21:41.436Z,0.00
2022-11-02T22:22:42.153Z,0.00
2022-11-02T22:23:41.470Z,0.00
2022-11-02T22:24:44.750Z,0.00
2022-11-02T22:25:41.381Z,0.00
2022-11-02T22:26:41.393Z,0.00
2022-11-02T22:27:41.671Z,0.00
2022-11-02T22:29:23.603Z,0.00
2022-11-02T22:30:08.619Z,0.00
2022-11-02T22:31:09.931Z,0.00
2022-11-02T22:32:03.308Z,0.00
2022-11-02T22:33:08.662Z,0.00
2022-11-02T22:34:59.191Z,0.00
2022-11-02T22:35:55.537Z,0.00
2022-11-02T22:36:54.530Z,0.00
2022-11-02T22:37:52.032Z,0.00
2022-11-02T22:46:43.553Z,0.00
2022-11-02T22:47:31.409Z,0.00
2022-11-02T22:48:43.530Z,0.00
2022-11-02T22:49:46.872Z,0.00
2022-11-02T22:50:39.446Z,0.00
2022-11-02T22:51:54.703Z,0.00
2022-11-02T22:53:07.874Z,0.00
2022-11-02T22:55:24.334Z,0.00
2022-11-02T22:55:44.764Z,0.00
2022-11-02T22:56:38.978Z,0.00
2022-11-02T22:57:59.719Z,0.00
2022-11-02T22:58:32.529Z,0.00
2022-11-02T22:59:56.964Z,0.00
2022-11-02T23:00:51.799Z,0.00
2022-11-02T23:01:46.884Z,0.00
2022-11-02T23:02:33.846Z,0.00
2022-11-02T23:03:33.942Z,0.00
2022-11-02T23:05:09.860Z,0.00
2022-11-02T23:06:18.601Z,0.00
2022-11-02T23:06:42.898Z,0.00
2022-11-02T23:07:34.742Z,0.00
2022-11-02T23:09:01.406Z,0.00
2022-11-02T23:10:20.361Z,0.00
2022-11-02T23:10:39.278Z,0.00
2022-11-02T23:11:36.895Z,0.00
2022-11-02T23:12:28.932Z,0.00
2022-11-02T23:14:20.215Z,0.00
2022-11-02T23:14:59.835Z,0.00
2022-11-02T23:25:13.530Z,0.00
2022-11-02T23:26:22.292Z,0.00
2022-11-02T23:26:53.075Z,0.00
2022-11-02T23:29:10.616Z,0.00
2022-11-02T23:30:03.461Z,0.00
2022-11-02T23:31:17.566Z,0.00
2022-11-02T23:31:59.297Z,0.00
2022-11-02T23:33:15.708Z,0.00
2022-11-02T23:34:05.321Z,0.00
2022-11-02T23:35:03.733Z,0.00
2022-11-02T23:35:58.092Z,0.00
2022-11-02T23:37:32.575Z,0.00
2022-11-02T23:38:12.269Z,0.00
2022-11-02T23:39:32.898Z,0.00
2022-11-02T23:40:04.751Z,0.00
2022-11-02T23:40:58.651Z,0.00
2022-11-02T23:42:19.378Z,0.00
2022-11-02T23:43:27.234Z,0.00
2022-11-02T23:44:34.612Z,0.00
2022-11-02T23:44:59.154Z,0.00
2022-11-02T23:46:05.817Z,0.00
2022-11-02T23:57:38.149Z,0.00
2022-11-02T23:58:28.454Z,0.00
2022-11-02T23:59:02.531Z,0.00
